Latest Weather Observations for Williamtown

IDN60901

Issued at 6:45 pm EDT Wednesday 26 November 2014 (issued every 10 minutes, with the page automatically refreshed every 10 minutes)

About weather observations | Map of Sydney area stations | Latest observations for Sydney area | Other Formats
Station Details ID: 061078 Name: WILLIAMTOWN RAAF Lat: -32.79 Lon: 151.84 Height: 9.0 m
Data from the previous 72 hours. | See also: Recent months at Williamtown
Date/Time
EDT
Tmp

°C
App
Tmp
°C
Dew
Point
°C
Rel
Hum
%
Delta-T

°C
Wind Press
QNH
hPa
Press
MSL
hPa
Rain
since
9 am
mm
Dir
 
Spd
km/h
Gust
km/h
Spd
kts
Gust
kts
26/06:30pm 23.6 21.7 16.6 65 4.3 NE 22 35 12 19 1015.1 - 0.0
26/06:00pm 24.2 22.1 16.3 61 4.8 ENE 22 33 12 18 1014.8 1014.8 0.0
26/05:30pm 24.0 22.0 16.5 63 4.6 ENE 22 33 12 18 1014.9 - 0.0
26/05:00pm 24.3 21.9 16.3 61 4.9 ENE 24 35 13 19 1014.9 - 0.0
26/04:30pm 24.3 21.5 16.3 61 4.9 ENE 26 39 14 21 1015.2 - 0.0
26/04:00pm 24.2 21.5 16.5 62 4.7 ENE 26 37 14 20 1015.5 - 0.0
26/03:30pm 24.6 21.8 16.4 60 5.0 ENE 26 35 14 19 1015.4 - 0.0
26/03:00pm 24.4 22.5 16.8 62 4.7 ENE 22 32 12 17 1016.0 1016.0 0.0
26/02:30pm 24.1 20.9 16.4 62 4.7 ENE 28 37 15 20 1016.1 - 0.0
26/02:00pm 24.5 22.6 16.7 61 4.8 ENE 22 33 12 18 1016.3 - 0.0
26/01:30pm 24.1 22.6 16.4 62 4.7 ENE 19 28 10 15 1016.7 - 0.0
26/01:00pm 23.6 20.3 16.0 62 4.6 ENE 28 37 15 20 1017.0 - 0.0
26/12:30pm 23.6 21.1 16.2 63 4.5 ENE 24 32 13 17 1017.5 - 0.0
26/12:00pm 23.8 20.9 16.0 61 4.7 E 26 32 14 17 1017.9 1017.9 0.0
26/11:30am 22.9 20.9 15.6 63 4.4 E 20 30 11 16 1018.3 - 0.0
26/11:00am 22.6 21.2 15.6 64 4.2 ENE 17 20 9 11 1018.7 - 0.0
26/10:30am 22.6 21.2 15.6 64 4.2 ENE 17 22 9 12 1018.7 - 0.0
26/10:00am 22.5 20.6 15.3 63 4.3 NE 19 24 10 13 1018.8 - 0.0
26/09:30am 21.9 20.4 15.3 66 3.9 E 17 26 9 14 1018.8 - 0.0
26/09:00am 21.1 20.3 15.0 68 3.6 E 13 19 7 10 1019.0 1019.0 0.0
26/08:30am 20.7 19.7 14.7 68 3.5 E 13 17 7 9 1019.1 - 0.0
26/08:00am 20.3 19.4 14.8 70 3.2 E 13 17 7 9 1019.1 - 0.0
26/07:30am 20.1 19.2 14.8 71 3.1 E 13 17 7 9 1019.0 - 0.0
26/07:00am 19.9 18.8 14.4 70 3.2 E 13 15 7 8 1019.0 - 0.0
26/06:30am 19.6 19.2 15.2 76 2.6 ESE 11 13 6 7 1019.0 - 0.0
26/06:00am 19.1 18.6 15.0 77 2.4 E 11 15 6 8 1019.0 1019.0 0.0
26/05:30am 19.1 18.7 14.2 73 2.8 E 9 11 5 6 1018.9 - 0.0
26/05:00am 19.0 18.7 14.3 74 2.7 E 9 11 5 6 1018.7 - 0.0
26/04:30am 18.8 18.6 14.7 77 2.4 E 9 11 5 6 1018.6 - 0.0
26/04:00am 19.1 18.4 14.2 73 2.8 E 11 13 6 7 1018.6 - 0.0
26/03:30am 19.1 18.4 14.4 74 2.7 E 11 13 6 7 1018.7 - 0.0
26/03:00am 19.0 17.9 14.3 74 2.7 E 13 15 7 8 1018.8 1018.8 0.0
26/02:30am 18.9 18.3 14.6 76 2.5 E 11 15 6 8 1019.0 - 0.0
26/02:00am 18.9 18.2 14.4 75 2.6 E 11 15 6 8 1019.1 - 0.0
26/01:30am 18.7 17.6 14.4 76 2.5 E 13 15 7 8 1019.4 - 0.0
26/01:00am 18.6 17.9 14.4 76 2.4 E 11 13 6 7 1019.8 - 0.0
26/12:30am 18.5 17.9 14.5 77 2.3 E 11 15 6 8 1020.0 - 0.0
26/12:00am 18.4 18.1 14.4 77 2.3 ESE 9 11 5 6 1020.0 1020.0 0.0
 
Date/Time
EDT
Tmp

°C
App
Tmp
°C
Dew
Point
°C
Rel
Hum
%
Delta-T

°C
Wind Press
QNH
hPa
Press
MSL
hPa
Rain
since
9 am
mm
Dir
 
Spd
km/h
Gust
km/h
Spd
kts
Gust
kts
25/11:30pm 18.5 18.1 14.1 75 2.5 E 9 13 5 7 1020.1 - 0.0
25/11:00pm 18.5 18.1 14.1 75 2.5 E 9 13 5 7 1020.2 - 0.0
25/10:30pm 18.5 18.2 14.3 76 2.4 E 9 13 5 7 1020.0 - 0.0
25/10:00pm 18.6 18.1 14.8 78 2.2 E 11 13 6 7 1019.9 - 0.0
25/09:30pm 18.5 19.8 15.1 80 2.0 NE 2 7 1 4 1019.6 - 0.0
25/09:00pm 19.1 18.9 14.8 76 2.5 ENE 9 13 5 7 1019.5 1019.5 0.0
25/08:30pm 19.2 19.2 15.1 77 2.4 ENE 9 11 5 6 1019.2 - 0.0
25/08:00pm 19.4 19.0 15.1 76 2.5 ENE 11 15 6 8 1018.6 - 0.0
25/07:30pm 19.9 18.2 14.8 72 3.0 E 17 24 9 13 1018.4 - 0.0
25/07:00pm 20.2 18.6 14.9 71 3.1 E 17 24 9 13 1018.1 - 0.0
25/06:30pm 20.3 18.1 15.0 71 3.1 ESE 20 26 11 14 1017.3 - 0.0
25/06:00pm 20.9 18.9 15.5 71 3.2 ESE 20 32 11 17 1017.0 1017.0 0.0
25/05:30pm 21.2 18.8 15.3 69 3.5 ESE 22 30 12 16 1016.8 - 0.0
25/05:00pm 21.4 17.7 15.1 67 3.7 SE 28 32 15 17 1016.7 - 0.0
25/04:30pm 21.4 18.3 15.7 70 3.4 SE 26 32 14 17 1016.8 - 0.0
25/04:00pm 21.5 18.4 15.6 69 3.5 SE 26 32 14 17 1016.6 - 0.0
25/03:30pm 21.6 18.5 15.7 69 3.5 SE 26 32 14 17 1016.3 - 0.0
25/03:00pm 21.9 18.1 15.7 68 3.7 SSE 30 33 16 18 1016.3 1016.3 0.0
25/02:30pm 22.2 18.4 16.6 70 3.4 SSE 32 37 17 20 1016.2 - 0.0
25/02:00pm 22.9 19.2 16.9 69 3.7 SSE 32 41 17 22 1016.1 - 0.0
25/01:30pm 23.2 18.9 17.0 68 3.8 SSE 35 44 19 24 1016.0 - 0.0
25/01:00pm 23.5 18.6 17.2 67 3.9 SSE 39 50 21 27 1015.5 - 0.0
25/12:32pm 24.1 20.3 17.1 65 4.3 S 33 52 18 28 1015.4 - 0.0
25/12:30pm 24.4 20.4 16.8 62 4.7 S 33 41 18 22 1015.2 - 0.0
25/12:14pm 26.4 22.6 16.7 55 6.0 S 32 48 17 26 1014.9 - 0.0
25/12:00pm 28.0 25.5 15.2 45 7.8 SSW 22 30 12 16 1014.6 1014.6 0.0
25/11:30am 28.2 26.4 15.6 46 7.7 WSW 19 30 10 16 1014.5 - 0.0
25/11:00am 28.3 27.6 17.3 51 6.9 W 17 28 9 15 1014.3 - 0.0
25/10:30am 26.3 25.8 17.7 59 5.4 W 17 24 9 13 1014.1 - 0.0
25/10:00am 25.5 25.3 18.6 65 4.4 W 17 24 9 13 1013.8 - 0.0
25/09:30am 25.3 24.9 20.1 73 3.4 WNW 22 28 12 15 1013.3 - 0.0
25/09:00am 24.6 25.1 20.1 76 2.9 WSW 17 24 9 13 1012.9 1012.9 17.4
25/08:30am 23.8 24.6 19.8 78 2.6 W 15 22 8 12 1012.0 - 17.4
25/08:00am 23.7 26.3 19.2 76 2.9 NNW 4 9 2 5 1011.0 - 17.4
25/07:30am 23.1 22.0 19.5 80 2.3 N 24 30 13 16 1010.5 - 17.4
25/07:00am 23.1 22.0 19.5 80 2.3 WNW 24 32 13 17 1011.1 - 17.4
25/06:30am 22.9 21.9 19.6 81 2.1 WNW 24 33 13 18 1010.8 - 17.4
25/06:00am 22.9 21.3 19.3 80 2.3 WNW 26 33 14 18 1010.6 1010.6 17.4
25/05:30am 22.6 22.9 19.6 83 1.9 NW 17 24 9 13 1010.2 - 17.4
25/05:00am 22.9 24.1 19.8 83 2.0 NNW 13 19 7 10 1010.1 - 17.4
25/04:30am 22.7 24.7 20.7 88 1.3 NNW 11 17 6 9 1010.0 - 17.0
25/04:00am 22.8 24.2 21.0 89 1.2 NNW 15 19 8 10 1010.2 - 17.0
25/03:30am 22.6 25.2 21.2 92 0.9 NNW 9 15 5 8 1009.8 - 17.0
25/03:00am 22.6 26.0 21.7 95 0.6 NW 6 11 3 6 1009.6 1009.6 17.0
25/02:30am 22.4 25.7 21.8 96 0.4 N 7 9 4 5 1010.0 - 17.0
25/02:00am 22.5 27.1 21.7 95 0.5 CALM 0 6 0 3 1010.1 - 17.0
25/01:30am 22.8 24.9 21.7 93 0.7 WNW 13 19 7 10 1010.1 - 16.8
25/01:00am 23.0 23.8 21.8 93 0.8 WNW 20 28 11 15 1010.5 - 16.4
25/12:30am 22.9 23.7 21.7 93 0.8 W 20 30 11 16 1011.3 - 15.6
25/12:00am 22.7 24.9 21.9 95 0.5 WNW 13 17 7 9 1011.0 1011.0 14.6
 
Date/Time
EDT
Tmp

°C
App
Tmp
°C
Dew
Point
°C
Rel
Hum
%
Delta-T

°C
Wind Press
QNH
hPa
Press
MSL
hPa
Rain
since
9 am
mm
Dir
 
Spd
km/h
Gust
km/h
Spd
kts
Gust
kts
24/11:30pm 22.7 24.5 21.8 95 0.6 N 15 20 8 11 1011.1 - 14.6
24/11:00pm 22.5 25.9 21.6 95 0.6 NNW 6 9 3 5 1010.3 - 13.4
24/10:30pm 22.4 25.5 21.5 95 0.6 N 7 11 4 6 1009.9 - 13.4
24/10:00pm 22.4 26.9 21.6 95 0.5 CALM 0 0 0 0 1009.2 - 13.4
24/09:30pm 22.5 27.0 21.6 95 0.6 CALM 0 0 0 0 1008.8 - 13.4
24/09:00pm 22.6 27.2 21.7 95 0.6 CALM 0 0 0 0 1009.0 1009.0 13.0
24/08:30pm 22.6 25.5 21.8 95 0.5 NE 9 13 5 7 1009.1 - 12.8
24/08:06pm 22.5 24.6 21.7 95 0.5 N 13 19 7 10 1010.3 - 12.2
24/08:00pm 22.6 25.0 21.5 93 0.7 NNW 11 15 6 8 1010.2 - 12.2
24/07:38pm 22.7 21.9 21.6 93 0.7 NW 28 37 15 20 1011.5 - 8.8
24/07:30pm 22.7 24.5 21.2 91 1.0 E 13 20 7 11 1008.2 - 8.8
24/07:00pm 23.8 25.3 21.2 85 1.7 E 15 22 8 12 1007.5 - 8.8
24/06:30pm 23.6 23.4 21.2 86 1.6 SSW 24 32 13 17 1007.7 - 8.2
24/06:29pm 23.5 23.6 21.1 86 1.6 SSW 22 30 12 16 1007.9 - 8.2
24/06:07pm 22.3 20.2 20.9 92 0.9 WSW 33 52 18 28 1007.8 - 8.2
24/06:00pm 22.7 27.2 21.6 93 0.7 CALM 0 0 0 0 1005.4 1005.4 8.2
24/05:30pm 21.9 22.6 20.4 91 1.0 SSW 17 22 9 12 1005.4 - 8.2
24/05:16pm 21.3 20.6 20.2 93 0.7 ENE 24 35 13 19 1006.5 - 8.2
24/05:00pm 21.4 21.1 19.5 89 1.2 N 20 35 11 19 1007.8 - 8.0
24/04:55pm 21.1 19.7 18.9 87 1.4 NNW 24 35 13 19 1008.8 - 6.8
24/04:49pm 19.4 9.6 19.2 99 0.1 NNW 69 98 37 53 1008.7 - 3.2
24/04:48pm 20.0 15.6 19.4 96 0.4 NNW 41 98 22 53 1008.9 - 1.2
24/04:46pm 23.9 20.2 18.4 71 3.5 NNW 35 52 19 28 1009.2 - 0.4
24/04:41pm 26.4 24.3 20.6 70 3.8 WNW 32 48 17 26 1009.9 - 0.2
24/04:36pm 25.4 24.4 21.2 77 2.8 WNW 28 46 15 25 1009.5 - 0.2
24/04:30pm 24.4 25.5 21.2 82 2.1 SSE 17 19 9 10 1006.8 - 0.2
24/04:00pm 25.5 25.9 20.6 74 3.2 E 19 24 10 13 1006.3 - 0.2
24/03:30pm 26.7 26.8 20.3 68 4.2 SE 20 28 11 15 1006.5 - 0.2
24/03:00pm 26.7 27.1 20.6 69 4.0 SE 19 26 10 14 1007.6 1007.6 0.2
24/02:30pm 25.9 26.2 20.4 71 3.6 ESE 19 24 10 13 1008.6 - 0.2
24/02:00pm 25.1 25.4 20.5 75 3.0 SE 19 24 10 13 1009.6 - 0.2
24/01:30pm 24.4 25.2 20.6 79 2.5 SE 17 24 9 13 1010.3 - 0.2
24/01:00pm 24.5 25.6 20.5 78 2.6 SE 15 24 8 13 1011.0 - 0.2
24/12:30pm 23.8 24.4 20.3 81 2.3 SSE 17 24 9 13 1011.4 - 0.2
24/12:00pm 23.4 23.5 20.3 83 2.0 SE 20 26 11 14 1011.9 1011.9 0.2
24/11:30am 23.2 24.2 20.3 84 1.9 S 15 20 8 11 1013.0 - 0.2
24/11:00am 23.7 24.0 20.3 81 2.2 SSE 19 24 10 13 1013.1 - 0.2
24/10:30am 23.9 23.9 20.2 80 2.4 SSE 20 30 11 16 1013.3 - 0.0
24/10:00am 23.2 22.3 19.8 81 2.2 S 24 30 13 16 1013.9 - 0.0
24/09:30am 22.8 21.9 19.8 83 1.9 S 24 30 13 16 1014.3 - 0.0
24/09:00am 23.4 23.5 20.3 83 2.0 S 20 28 11 15 1014.1 1014.1 12.6
24/08:30am 23.0 23.0 20.1 84 1.9 S 20 28 11 15 1014.0 - 12.6
24/08:00am 22.6 24.5 20.6 88 1.3 SSW 11 17 6 9 1014.2 - 12.6
24/07:30am 22.1 22.5 20.6 91 1.0 S 19 26 10 14 1013.4 - 12.6
24/07:00am 21.4 23.4 20.8 96 0.4 S 11 15 6 8 1013.3 - 12.6
24/06:30am 21.1 21.8 20.5 96 0.4 S 17 22 9 12 1013.2 - 12.6
24/06:00am 20.9 21.9 20.3 96 0.4 SSE 15 17 8 9 1012.9 1012.9 12.6
24/05:30am 20.3 21.8 19.7 96 0.4 SW 11 15 6 8 1013.1 - 12.6
24/05:12am 20.3 22.5 19.7 96 0.4 WNW 7 11 4 6 1013.0 - 12.6
24/05:00am 20.5 24.1 19.7 95 0.5 CALM 0 0 0 0 1012.8 - 12.6
24/04:30am 21.0 24.7 19.9 93 0.7 CALM 0 0 0 0 1012.4 - 12.6
24/04:00am 21.5 23.2 20.1 92 0.9 SSE 11 15 6 8 1012.5 - 12.6
24/03:30am 21.7 22.2 20.1 91 1.0 SE 17 24 9 13 1012.5 - 12.6
24/03:00am 21.8 22.3 20.1 90 1.1 E 17 22 9 12 1012.6 1012.6 12.6
24/02:30am 21.8 23.5 20.1 90 1.1 ESE 11 17 6 9 1011.9 - 12.6
24/02:00am 21.9 23.7 20.4 91 1.0 ESE 11 15 6 8 1011.6 - 12.6
24/01:30am 21.8 22.9 20.4 92 0.9 NE 15 22 8 12 1012.3 - 12.6
24/01:00am 22.1 23.9 20.4 90 1.1 S 11 15 6 8 1011.8 - 12.6
24/12:30am 21.7 23.9 20.5 93 0.8 W 9 15 5 8 1012.6 - 12.6
24/12:00am 21.5 23.7 20.3 93 0.8 S 9 15 5 8 1012.6 1012.6 12.6
 
Date/Time
EDT
Tmp

°C
App
Tmp
°C
Dew
Point
°C
Rel
Hum
%
Delta-T

°C
Wind Press
QNH
hPa
Press
MSL
hPa
Rain
since
9 am
mm
Dir
 
Spd
km/h
Gust
km/h
Spd
kts
Gust
kts
23/11:30pm 21.7 24.8 20.3 92 0.9 S 4 11 2 6 1014.0 - 12.6
23/11:00pm 22.1 23.8 20.2 89 1.2 SSW 11 17 6 9 1014.2 - 12.6
23/10:30pm 24.9 21.8 18.4 67 4.1 SSW 32 43 17 23 1013.9 - 12.6
23/10:25pm 26.8 23.7 16.6 53 6.3 SSW 28 43 15 23 1013.7 - 12.6
23/10:00pm 27.2 26.3 16.9 53 6.4 ENE 17 24 9 13 1011.8 - 12.6
23/09:30pm 26.9 25.9 17.5 56 5.9 E 19 24 10 13 1011.0 - 12.6
23/09:00pm 28.7 26.7 15.5 44 8.1 NE 20 28 11 15 1010.6 1010.6 12.6
23/08:30pm 26.6 24.2 17.3 56 5.8 E 26 41 14 22 1010.8 - 12.6
23/08:20pm 25.8 23.3 18.0 62 4.9 E 28 35 15 19 1011.2 - 12.6
23/08:07pm 27.5 22.9 16.2 50 7.0 E 35 50 19 27 1010.5 - 12.6
23/08:00pm 25.9 22.6 18.0 61 5.0 E 32 37 17 20 1011.3 - 12.4
23/07:37pm 23.8 23.1 18.7 73 3.2 S 20 43 11 23 1012.4 - 9.4
23/07:30pm 23.8 19.2 19.6 77 2.7 WSW 43 61 23 33 1012.0 - 2.2
23/07:26pm 26.1 21.0 18.6 63 4.8 WSW 43 61 23 33 1011.8 - 0.2
23/07:22pm 31.5 25.7 13.8 34 10.7 SW 37 56 20 30 1011.2 - 0.0
23/07:00pm 32.7 29.1 15.3 35 10.8 S 28 43 15 23 1009.0 - 0.0
23/06:52pm 33.5 30.7 15.4 33 11.3 S 24 33 13 18 1008.7 - 0.0

Latest Capital City Observations: Canberra | Sydney | Melbourne | Brisbane | Adelaide | Perth | Hobart | Darwin

Other Formats:

Comma delimited format used in spreadsheet applications
http://www.bom.gov.au/fwo/IDN60901/IDN60901.94776.axf

JavaScript Object Notation format (JSON) in row-major order
http://www.bom.gov.au/fwo/IDN60901/IDN60901.94776.json